Terminal Aerodrome Forecast
Issued by NWS

Home | Current Version | Previous Version | Text Only | Print | Product List | Glossary On
Versions: 1 2 3 4 5 6 7 8 9 10 11 12 13 14 15 16
000
FTUS43 KICT 172300
TAFCNU
TAF
KCNU 172322Z 1800/1824 04005KT P6SM BKN080
     FM180500 VRB03KT 4SM BR SCT100
     FM181400 15008KT P6SM SKC=

USA.gov is the U.S. government's official web portal to all federal, state and local government web resources and services.